Time;durP1;ratioP1;P1;durP2;ratioP2;P2;SDS_P1;SDS_P2;PMS_P1;PMS_P2;Temp;Humidity;BMP_temperature;BMP_pressure;BME280_temperature;BME280_humidity;BME280_pressure;Samples;Min_cycle;Max_cycle;Signal;HPM_P1;HPM_P2
2022/04/25 00:04:00;;;;;;;;;;;10.60;99.90;;;;;;10292437;28;84946;-49
2022/04/25 00:09:01;;;;;;;;;;;10.50;99.90;;;;;;10290385;28;86968;-47
2022/04/25 00:14:01;;;;;;;;;;;10.60;99.90;;;;;;10291571;28;87977;-51
2022/04/25 00:19:02;;;;;;;;;;;10.50;99.90;;;;;;10291564;28;84050;-49
2022/04/25 00:24:03;;;;;;;;;;;10.60;99.90;;;;;;10290351;28;84263;-49
2022/04/25 00:29:03;;;;;;;;;;;10.60;99.90;;;;;;10286731;28;87226;-49
2022/04/25 00:34:04;;;;;;;;;;;10.60;99.90;;;;;;10288771;28;84768;-48
2022/04/25 00:39:04;;;;;;;;;;;10.50;99.90;;;;;;10289444;28;84884;-49
2022/04/25 00:44:05;;;;;;;;;;;10.50;99.90;;;;;;10291155;28;84839;-55
2022/04/25 00:49:05;;;;;;;;;;;10.50;99.90;;;;;;10290469;28;85015;-49
2022/04/25 00:54:06;;;;;;;;;;;10.40;99.90;;;;;;10290443;28;84088;-48
2022/04/25 00:59:07;;;;;;;;;;;10.40;99.90;;;;;;10289707;28;84160;-53
2022/04/25 01:04:08;;;;;;;;;;;10.40;99.90;;;;;;10290743;28;84170;-50
2022/04/25 01:09:09;;;;;;;;;;;10.40;99.90;;;;;;10289472;28;84179;-50
2022/04/25 01:14:13;;;;;;;;;;;10.30;99.90;;;;;;10289874;28;84181;-48
2022/04/25 01:19:14;;;;;;;;;;;10.30;99.90;;;;;;10290467;28;85111;-49
2022/04/25 01:29:34;;;;;;;;;;;10.20;99.90;;;;;;10309633;22;85049;-59
2022/04/25 01:34:37;;;;;;;;;;;10.10;99.90;;;;;;10287446;28;84161;-58
2022/04/25 01:39:41;;;;;;;;;;;10.10;99.90;;;;;;10287637;28;85052;-59
2022/04/25 01:44:42;;;;;;;;;;;9.90;99.90;;;;;;10287249;28;85930;-58
2022/04/25 01:49:43;;;;;;;;;;;10.00;99.90;;;;;;10286837;28;84161;-59
2022/04/25 01:54:43;;;;;;;;;;;10.00;99.90;;;;;;10287659;28;84134;-59
2022/04/25 01:59:45;;;;;;;;;;;9.90;99.90;;;;;;10264692;28;87144;-59
2022/04/25 02:04:45;;;;;;;;;;;9.90;99.90;;;;;;10260508;28;84944;-59
2022/04/25 02:09:46;;;;;;;;;;;9.80;99.90;;;;;;10286226;28;84726;-58
2022/04/25 02:14:46;;;;;;;;;;;9.80;99.90;;;;;;10285804;28;84337;-59
2022/04/25 02:19:47;;;;;;;;;;;9.80;99.90;;;;;;10286262;28;84318;-59
2022/04/25 02:24:47;;;;;;;;;;;9.90;99.90;;;;;;10286657;28;87277;-60
2022/04/25 02:29:49;;;;;;;;;;;9.90;99.90;;;;;;10267670;28;84396;-60
2022/04/25 02:34:53;;;;;;;;;;;9.80;99.90;;;;;;10286705;28;84126;-59
2022/04/25 02:39:54;;;;;;;;;;;9.70;99.90;;;;;;10279612;28;84923;-59
2022/04/25 02:44:55;;;;;;;;;;;9.60;99.90;;;;;;10285544;28;84810;-59
2022/04/25 02:49:55;;;;;;;;;;;9.50;99.90;;;;;;10281349;28;84833;-60
2022/04/25 02:54:56;;;;;;;;;;;9.40;99.90;;;;;;10277112;28;84990;-58
2022/04/25 02:59:56;;;;;;;;;;;9.40;99.90;;;;;;10273922;28;86319;-59
2022/04/25 03:04:57;;;;;;;;;;;9.40;99.90;;;;;;10285114;28;85965;-58
2022/04/25 03:09:57;;;;;;;;;;;9.30;99.90;;;;;;10267068;28;84120;-60
2022/04/25 03:14:58;;;;;;;;;;;9.20;99.90;;;;;;10284888;28;84887;-60
2022/04/25 03:19:58;;;;;;;;;;;9.10;99.90;;;;;;10284002;28;84786;-59
2022/04/25 03:24:59;;;;;;;;;;;9.10;99.90;;;;;;10285201;28;85360;-58
2022/04/25 03:30:00;;;;;;;;;;;9.20;99.90;;;;;;10282602;28;84462;-60
2022/04/25 03:35:03;;;;;;;;;;;9.20;99.90;;;;;;10285297;28;84978;-59
2022/04/25 03:40:05;;;;;;;;;;;9.30;99.90;;;;;;10284113;28;84115;-60
2022/04/25 03:45:07;;;;;;;;;;;9.30;99.90;;;;;;10284291;28;84002;-59
2022/04/25 03:50:08;;;;;;;;;;;9.40;99.90;;;;;;10283665;28;84169;-58
2022/04/25 04:00:33;;;;;;;;;;;9.30;99.90;;;;;;10291238;28;85258;-58
2022/04/25 04:05:33;;;;;;;;;;;9.20;99.90;;;;;;10290612;28;84241;-59
2022/04/25 04:10:34;;;;;;;;;;;9.20;99.90;;;;;;10289516;28;84787;-59
2022/04/25 04:15:35;;;;;;;;;;;9.30;99.90;;;;;;10289024;28;84892;-60
2022/04/25 04:20:35;;;;;;;;;;;9.30;99.90;;;;;;10272468;28;84961;-60
2022/04/25 04:25:36;;;;;;;;;;;9.30;99.90;;;;;;10289242;28;84720;-60
2022/04/25 04:30:37;;;;;;;;;;;9.50;99.90;;;;;;10289374;28;85267;-60
2022/04/25 04:40:56;;;;;;;;;;;9.30;99.90;;;;;;10287052;28;84260;-60
2022/04/25 04:45:58;;;;;;;;;;;9.20;99.90;;;;;;10271075;28;84123;-59
2022/04/25 04:50:58;;;;;;;;;;;9.20;99.90;;;;;;10288961;28;84862;-56
2022/04/25 04:56:00;;;;;;;;;;;9.20;99.90;;;;;;10289473;28;84963;-55
2022/04/25 05:01:01;;;;;;;;;;;9.20;99.90;;;;;;10285187;28;85260;-56
2022/04/25 05:06:01;;;;;;;;;;;9.20;99.90;;;;;;10286398;28;85143;-56
2022/04/25 05:11:04;;;;;;;;;;;9.20;99.90;;;;;;10288898;28;84804;-55
2022/04/25 05:16:04;;;;;;;;;;;9.30;99.90;;;;;;10285668;28;84922;-57
2022/04/25 05:21:05;;;;;;;;;;;9.30;99.90;;;;;;10287776;28;84328;-53
2022/04/25 05:26:07;;;;;;;;;;;9.40;99.90;;;;;;10287561;28;85659;-54
2022/04/25 05:31:08;;;;;;;;;;;9.40;99.90;;;;;;10283914;28;84849;-56
2022/04/25 05:36:08;;;;;;;;;;;9.50;99.90;;;;;;10285658;28;84804;-55
2022/04/25 05:41:09;;;;;;;;;;;9.50;99.90;;;;;;10268451;28;85349;-56
2022/04/25 05:46:10;;;;;;;;;;;9.50;99.90;;;;;;10288536;28;84226;-56
2022/04/25 05:56:30;;;;;;;;;;;9.70;99.90;;;;;;10287968;28;84907;-55
2022/04/25 06:01:30;;;;;;;;;;;9.80;99.90;;;;;;10271037;28;84983;-55
2022/04/25 06:06:31;;;;;;;;;;;9.70;99.90;;;;;;10287824;28;84945;-54
2022/04/25 06:11:32;;;;;;;;;;;9.60;99.90;;;;;;10288340;28;84128;-55
2022/04/25 06:16:33;;;;;;;;;;;9.50;99.90;;;;;;10286364;28;84117;-57
2022/04/25 06:21:33;;;;;;;;;;;9.60;99.90;;;;;;10288074;28;84874;-56
2022/04/25 06:26:36;;;;;;;;;;;9.60;99.90;;;;;;10286521;28;85484;-56
2022/04/25 06:31:37;;;;;;;;;;;9.60;99.90;;;;;;10288133;28;84328;-55
2022/04/25 06:36:37;;;;;;;;;;;9.60;99.90;;;;;;10269016;28;93304;-57
2022/04/25 06:41:41;;;;;;;;;;;9.70;99.90;;;;;;10287276;28;84114;-56
2022/04/25 06:46:43;;;;;;;;;;;9.80;99.90;;;;;;10287066;28;84021;-58
2022/04/25 06:51:43;;;;;;;;;;;9.50;99.90;;;;;;10288052;28;84112;-54
2022/04/25 06:56:44;;;;;;;;;;;9.60;99.90;;;;;;10286229;28;84232;-56
2022/04/25 07:01:48;;;;;;;;;;;9.80;99.90;;;;;;10269741;28;87052;-56
2022/04/25 07:06:49;;;;;;;;;;;9.70;99.90;;;;;;10268683;28;84983;-56
2022/04/25 07:11:49;;;;;;;;;;;9.70;99.90;;;;;;10286635;28;84131;-56
2022/04/25 07:16:54;;;;;;;;;;;9.90;99.90;;;;;;10285965;28;85071;-56
2022/04/25 07:32:40;;;;;;;;;;;10.10;49.40;;;;;;10292582;28;84924;-47
2022/04/25 07:37:41;;;;;;;;;;;10.10;26.00;;;;;;10292616;28;84144;-47
2022/04/25 07:42:41;;;;;;;;;;;10.30;6.00;;;;;;10293151;28;84133;-51
2022/04/25 07:47:45;;;;;;;;;;;10.20;5.00;;;;;;10292667;28;85243;-49
2022/04/25 07:52:45;;;;;;;;;;;10.40;1.80;;;;;;10293004;28;84937;-49
2022/04/25 07:57:46;;;;;;;;;;;10.50;1.00;;;;;;10292065;28;84220;-46
2022/04/25 08:02:46;;;;;;;;;;;10.50;1.00;;;;;;10291792;28;84826;-50
2022/04/25 08:07:47;;;;;;;;;;;10.60;1.00;;;;;;10291995;28;84998;-50
2022/04/25 08:18:07;;;;;;;;;;;10.60;1.00;;;;;;10292252;28;84891;-47
2022/04/25 08:23:10;;;;;;;;;;;10.90;1.00;;;;;;10293133;28;85839;-49
2022/04/25 08:28:10;;;;;;;;;;;11.00;1.00;;;;;;10290679;28;84992;-50
2022/04/25 08:33:12;;;;;;;;;;;10.90;1.00;;;;;;10292385;28;84132;-49
2022/04/25 08:38:12;;;;;;;;;;;11.00;1.00;;;;;;10290940;28;84348;-45
2022/04/25 08:43:13;;;;;;;;;;;11.20;1.00;;;;;;10290461;28;85227;-49
2022/04/25 08:48:14;;;;;;;;;;;11.20;1.00;;;;;;10290489;28;85307;-47
2022/04/25 08:53:16;;;;;;;;;;;11.20;1.00;;;;;;10291217;28;84898;-47
2022/04/25 08:58:16;;;;;;;;;;;11.30;1.00;;;;;;10290128;28;84810;-47
2022/04/25 09:03:17;;;;;;;;;;;11.30;1.00;;;;;;10290836;28;84253;-47
2022/04/25 09:08:18;;;;;;;;;;;11.10;1.00;;;;;;10289428;28;84860;-53
2022/04/25 09:13:19;;;;;;;;;;;11.10;1.00;;;;;;10290786;28;84802;-49
2022/04/25 09:18:20;;;;;;;;;;;11.10;1.00;;;;;;10289457;28;84540;-51
2022/04/25 09:23:21;;;;;;;;;;;11.10;1.00;;;;;;10290948;28;84266;-49
2022/04/25 09:28:22;;;;;;;;;;;11.10;1.00;;;;;;10269881;28;86086;-50
2022/04/25 09:33:23;;;;;;;;;;;11.10;1.00;;;;;;10290291;28;84704;-49
2022/04/25 09:38:30;;;;;;;;;;;11.30;1.00;;;;;;10288945;28;85009;-47
2022/04/25 09:43:31;;;;;;;;;;;11.60;1.00;;;;;;10289970;28;85002;-50
2022/04/25 09:48:32;;;;;;;;;;;11.80;1.00;;;;;;10288759;28;84101;-48
2022/04/25 09:53:46;;;;;;;;;;;11.90;1.00;;;;;;10271272;28;84111;-48
2022/04/25 09:59:06;;;;;;;;;;;11.90;1.00;;;;;;10288692;28;86733;-50
2022/04/25 10:04:27;;;;;;;;;;;11.90;1.00;;;;;;10289528;28;84760;-48
2022/04/25 10:09:32;;;;;;;;;;;12.00;1.00;;;;;;10288287;28;85294;-52
2022/04/25 10:14:32;;;;;;;;;;;12.20;1.00;;;;;;10289473;28;85304;-46
2022/04/25 10:19:33;;;;;;;;;;;12.20;1.00;;;;;;10287630;28;84018;-48
2022/04/25 10:24:35;;;;;;;;;;;12.20;1.00;;;;;;10288326;28;85615;-48
2022/04/25 10:29:37;;;;;;;;;;;12.30;1.00;;;;;;10269089;28;85907;-50
2022/04/25 10:34:45;;;;;;;;;;;12.30;1.00;;;;;;10288331;28;84116;-48
2022/04/25 10:39:47;;;;;;;;;;;12.00;1.00;;;;;;10269691;28;85859;-48
2022/04/25 10:44:47;;;;;;;;;;;12.00;1.00;;;;;;10287792;28;84949;-48
2022/04/25 10:49:55;;;;;;;;;;;12.10;1.00;;;;;;10286719;28;84995;-48
2022/04/25 10:55:14;;;;;;;;;;;12.20;1.00;;;;;;10289067;28;85040;-49
2022/04/25 11:00:34;;;;;;;;;;;12.20;1.00;;;;;;10271806;28;86919;-47
2022/04/25 11:05:35;;;;;;;;;;;11.90;1.00;;;;;;10289701;28;84028;-49
2022/04/25 11:10:46;;;;;;;;;;;11.90;1.00;;;;;;10301429;28;84181;-46
2022/04/25 11:15:51;;;;;;;;;;;12.10;1.00;;;;;;10281003;28;84727;-51
2022/04/25 11:20:58;;;;;;;;;;;12.00;1.00;;;;;;10297330;28;84130;-47
2022/04/25 11:26:00;;;;;;;;;;;12.20;1.00;;;;;;10289878;28;84148;-50
2022/04/25 11:31:13;;;;;;;;;;;12.20;1.00;;;;;;10274591;28;84715;-47
2022/04/25 11:36:13;;;;;;;;;;;12.40;1.00;;;;;;10288134;28;84039;-47
2022/04/25 11:41:14;;;;;;;;;;;12.40;1.00;;;;;;10270739;28;85229;-51
2022/04/25 11:46:15;;;;;;;;;;;12.40;1.00;;;;;;10274075;28;87062;-47
2022/04/25 11:51:25;;;;;;;;;;;12.40;1.00;;;;;;10272431;28;86129;-43
2022/04/25 11:56:26;;;;;;;;;;;12.30;1.00;;;;;;10287707;28;84867;-54
2022/04/25 12:01:32;;;;;;;;;;;12.10;22.10;;;;;;10259536;28;86188;-48
2022/04/25 12:06:32;;;;;;;;;;;12.20;99.90;;;;;;10286503;28;84089;-49
2022/04/25 12:17:00;;;;;;;;;;;12.10;99.90;;;;;;10288591;28;84143;-49
2022/04/25 12:22:04;;;;;;;;;;;11.90;99.90;;;;;;10274438;28;86377;-51
2022/04/25 12:27:10;;;;;;;;;;;12.00;99.90;;;;;;10291747;28;86607;-56
2022/04/25 12:32:21;;;;;;;;;;;12.00;99.90;;;;;;10295372;28;84854;-53
2022/04/25 12:37:22;;;;;;;;;;;12.20;99.90;;;;;;10292202;28;86245;-50
2022/04/25 12:42:42;;;;;;;;;;;12.30;82.70;;;;;;10273557;28;85066;-49
2022/04/25 12:47:53;;;;;;;;;;;12.10;90.20;;;;;;10291879;28;84036;-51
2022/04/25 12:52:54;;;;;;;;;;;12.00;99.90;;;;;;10292691;28;84967;-50
2022/04/25 12:57:54;;;;;;;;;;;12.00;99.90;;;;;;10290332;28;84072;-51
2022/04/25 13:03:01;;;;;;;;;;;12.00;99.90;;;;;;10287747;28;84227;-55
2022/04/25 13:08:02;;;;;;;;;;;12.10;99.90;;;;;;10284349;28;85056;-56
2022/04/25 13:13:02;;;;;;;;;;;12.20;99.90;;;;;;10273580;28;86001;-54
2022/04/25 13:18:03;;;;;;;;;;;12.30;94.30;;;;;;10290302;28;84934;-54
2022/04/25 13:23:04;;;;;;;;;;;12.40;32.70;;;;;;10290954;28;83981;-57
2022/04/25 13:28:05;;;;;;;;;;;12.40;51.20;;;;;;10313630;22;84541;-56
2022/04/25 13:33:05;;;;;;;;;;;12.40;95.10;;;;;;10331716;28;85137;-59
2022/04/25 13:38:06;;;;;;;;;;;12.50;63.70;;;;;;10329951;28;87489;-59
2022/04/25 13:43:08;;;;;;;;;;;12.60;70.80;;;;;;10327649;28;84145;-57
2022/04/25 13:48:09;;;;;;;;;;;12.70;71.90;;;;;;10332737;28;84047;-54
2022/04/25 13:53:13;;;;;;;;;;;12.70;32.10;;;;;;10330310;28;84043;-59
2022/04/25 13:58:14;;;;;;;;;;;12.90;14.20;;;;;;10329357;28;84985;-59
2022/04/25 14:03:16;;;;;;;;;;;13.00;1.00;;;;;;10330040;28;85182;-56
2022/04/25 14:08:16;;;;;;;;;;;13.20;1.00;;;;;;10327908;28;84748;-55
2022/04/25 14:13:17;;;;;;;;;;;13.20;6.60;;;;;;10328718;28;85021;-59
2022/04/25 14:18:18;;;;;;;;;;;12.80;49.10;;;;;;10310767;28;84869;-60
2022/04/25 14:23:19;;;;;;;;;;;12.40;99.90;;;;;;10325335;28;86559;-56
2022/04/25 14:28:19;;;;;;;;;;;12.40;99.90;;;;;;10325644;28;84950;-55
2022/04/25 14:33:22;;;;;;;;;;;12.50;99.90;;;;;;10311092;28;85704;-58
2022/04/25 14:38:22;;;;;;;;;;;12.60;99.90;;;;;;10327982;28;84982;-56
2022/04/25 14:43:23;;;;;;;;;;;12.60;99.90;;;;;;10329677;28;84046;-55
2022/04/25 14:48:24;;;;;;;;;;;12.50;99.90;;;;;;10327343;28;84214;-59
2022/04/25 14:58:44;;;;;;;;;;;12.40;99.90;;;;;;10330920;28;84323;-55
2022/04/25 15:03:44;;;;;;;;;;;12.10;99.90;;;;;;10309957;28;86497;-58
2022/04/25 15:08:45;;;;;;;;;;;12.10;99.90;;;;;;10310664;28;87148;-58
2022/04/25 15:13:45;;;;;;;;;;;12.10;99.90;;;;;;10328562;28;85067;-53
2022/04/25 15:18:46;;;;;;;;;;;12.20;99.90;;;;;;10332391;28;85136;-60
2022/04/25 15:23:46;;;;;;;;;;;12.30;99.90;;;;;;10307687;28;84807;-53
2022/04/25 15:28:47;;;;;;;;;;;12.20;99.90;;;;;;10326871;28;86351;-54
2022/04/25 15:33:49;;;;;;;;;;;12.20;99.90;;;;;;10328169;28;84899;-53
2022/04/25 15:38:49;;;;;;;;;;;12.00;99.90;;;;;;10325138;28;84957;-53
2022/04/25 15:43:50;;;;;;;;;;;11.70;99.90;;;;;;10327112;28;85674;-58
2022/04/25 15:48:50;;;;;;;;;;;11.60;99.90;;;;;;10326408;28;84039;-55
2022/04/25 15:59:10;;;;;;;;;;;11.50;99.90;;;;;;10333391;28;85667;-57
2022/04/25 16:04:11;;;;;;;;;;;11.60;99.90;;;;;;10325699;28;85345;-58
2022/04/25 16:09:11;;;;;;;;;;;11.70;99.90;;;;;;10337882;28;85173;-56
2022/04/25 16:14:12;;;;;;;;;;;11.70;99.90;;;;;;10327607;28;84901;-56
2022/04/25 16:19:12;;;;;;;;;;;11.70;99.90;;;;;;10327240;28;84521;-55
2022/04/25 16:24:13;;;;;;;;;;;11.80;99.90;;;;;;10326960;28;85557;-55
2022/04/25 16:29:13;;;;;;;;;;;11.90;99.90;;;;;;10325059;28;84974;-53
2022/04/25 16:34:14;;;;;;;;;;;12.10;99.90;;;;;;10326855;28;84428;-56
2022/04/25 16:39:22;;;;;;;;;;;12.20;99.90;;;;;;10326544;28;85812;-51
2022/04/25 16:44:24;;;;;;;;;;;12.00;99.90;;;;;;10308912;28;84086;-58
2022/04/25 16:49:25;;;;;;;;;;;12.10;99.90;;;;;;10325735;28;84265;-57
2022/04/25 16:54:25;;;;;;;;;;;11.90;99.90;;;;;;10319459;28;84870;-57
2022/04/25 16:59:28;;;;;;;;;;;11.80;99.90;;;;;;10325376;28;84775;-58
2022/04/25 17:04:28;;;;;;;;;;;11.70;99.90;;;;;;10326524;28;84231;-53
2022/04/25 17:09:29;;;;;;;;;;;11.60;99.90;;;;;;10327506;28;84140;-58
2022/04/25 17:14:29;;;;;;;;;;;11.60;99.90;;;;;;10308977;28;85119;-58
2022/04/25 17:19:30;;;;;;;;;;;11.60;99.90;;;;;;10328651;28;84852;-58
2022/04/25 17:24:32;;;;;;;;;;;11.70;99.90;;;;;;10330453;28;84489;-60
2022/04/25 17:29:32;;;;;;;;;;;11.50;99.90;;;;;;10327378;28;84333;-61
2022/04/25 17:45:37;;;;;;;;;;;11.40;99.90;;;;;;10324283;28;84161;-51
